Kezdőlap
METAR-TAF:

METAR-TAF

Repülőterek :

Brookhaven Airport

Shirley, New York, Amerikai Egyesült Államok

földrajzi szélesség: 40-49-18N, földrajzi hosszúság: 072-52-08W, magasság: 25 m

Jelenlegi meteorológiai megfigyelések

A jelentés 36 perccel ezelõtt készült, 17:56 UTC
Dél-délnyugati szél 11 kt
Hőmérséklet 11°C
Páratartalom 24%
Légköri nyomás 1021 hPa
Látótávolság: 16.1 km
Derült ég

METAR: KHWV 231756Z AUTO 21011KT 10SM CLR 11/M09 A3015 RMK AO2 SLP209 60000 T01061089 10117 21017 58020 TSNO

Idő: 13:32 (18:32 UTC)


TAF: hiányzik

Meteorológiai megfigyelések és előrejelzések több, mint 4000 repülőtéren (METAR és TAF jelentéseket).

A térképen piros és sárga pontok jelzik az elérhető meteorológiai állomásokat.

Mozgassa az egeret a pont fölött, hogy megjelenjen az állomás neve.

Azután kattintson az időjárási megfigyelések és előrejelzések megtekintéséhez.

A térkép megváltoztatása: kattintson a fekete keresztel jelölt zöld gombra ráközelítéshez, a vonallal jelölt zöld gombra távolításhoz, vagy a zöld nyilakra a szomszédos térképek eléréséhez.


METAR-TAF: